Time;durP1;ratioP1;P1;durP2;ratioP2;P2;SDS_P1;SDS_P2;PMS_P1;PMS_P2;Temp;Humidity;BMP_temperature;BMP_pressure;BME280_temperature;BME280_humidity;BME280_pressure;Samples;Min_cycle;Max_cycle;Signal;HPM_P1;HPM_P2
2021/09/03 00:01:47;;;;;;;3.30;2.50;;;;;;;17.66;60.34;100604.19;4431270;32;32981;-85
2021/09/03 00:04:15;;;;;;;6.47;2.90;;;;;;;17.64;60.00;100595.41;4428578;32;33314;-85
2021/09/03 00:06:43;;;;;;;4.40;2.78;;;;;;;17.54;60.12;100598.72;4408091;32;33472;-86
2021/09/03 00:09:10;;;;;;;4.47;2.70;;;;;;;17.47;60.57;100605.38;4403183;32;34675;-86
2021/09/03 00:11:38;;;;;;;4.25;2.37;;;;;;;17.55;60.62;100598.62;4406576;32;33431;-85
2021/09/03 00:14:06;;;;;;;4.20;2.95;;;;;;;17.55;60.69;100598.62;4417312;32;32647;-85
2021/09/03 00:16:37;;;;;;;4.15;2.70;;;;;;;17.57;60.50;100594.06;4414477;32;33743;-85
2021/09/03 00:19:06;;;;;;;4.40;2.87;;;;;;;17.48;60.52;100591.94;4414479;32;33510;-87
2021/09/03 00:21:33;;;;;;;4.87;3.00;;;;;;;17.51;60.43;100594.41;4418532;32;33615;-87
2021/09/03 00:24:01;;;;;;;3.35;2.45;;;;;;;17.70;59.62;100593.31;4428819;32;33157;-86
2021/09/03 00:26:29;;;;;;;3.58;3.00;;;;;;;17.34;60.64;100602.59;4434036;32;35066;-86
2021/09/03 00:28:57;;;;;;;2.85;2.42;;;;;;;17.44;60.27;100597.56;4422076;32;33254;-87
2021/09/03 00:31:24;;;;;;;3.05;2.53;;;;;;;17.49;60.04;100596.34;4422556;32;33591;-86
2021/09/03 00:33:52;;;;;;;4.15;2.42;;;;;;;17.52;59.81;100600.59;4413973;32;32887;-85
2021/09/03 00:36:20;;;;;;;3.78;2.90;;;;;;;17.48;60.01;100591.09;4438983;32;33687;-86
2021/09/03 00:38:47;;;;;;;7.82;2.75;;;;;;;17.53;59.86;100589.00;4421717;32;34716;-85
2021/09/03 00:41:15;;;;;;;4.05;2.45;;;;;;;17.69;59.44;100588.94;4419601;32;32234;-85
2021/09/03 00:43:45;;;;;;;3.80;2.67;;;;;;;17.45;60.22;100589.44;4419083;32;33698;-85
2021/09/03 00:46:13;;;;;;;3.40;2.78;;;;;;;17.21;60.88;100598.91;4436050;32;34168;-85
2021/09/03 00:48:41;;;;;;;2.72;2.33;;;;;;;17.11;61.12;100596.78;4422098;32;32799;-85
2021/09/03 00:51:09;;;;;;;4.18;2.65;;;;;;;17.44;60.15;100590.41;4420644;32;32485;-86
2021/09/03 00:53:37;;;;;;;3.78;2.50;;;;;;;17.23;60.67;100595.19;4437442;32;33588;-85
2021/09/03 00:56:05;;;;;;;4.00;2.80;;;;;;;17.21;60.63;100596.25;4428819;32;34577;-85
2021/09/03 00:58:36;;;;;;;4.45;2.60;;;;;;;16.88;61.64;100594.56;4407358;32;33430;-85
2021/09/03 01:01:04;;;;;;;3.33;2.20;;;;;;;17.45;60.14;100593.94;4408185;32;32741;-85
2021/09/03 01:03:32;;;;;;;3.72;2.80;;;;;;;16.94;61.70;100594.22;4419316;32;34433;-85
2021/09/03 01:06:05;;;;;;;4.32;2.60;;;;;;;16.87;61.92;100587.53;4419295;32;34818;-85
2021/09/03 01:08:33;;;;;;;10.05;2.78;;;;;;;16.79;61.89;100584.44;4433160;32;34715;-85
2021/09/03 01:11:01;;;;;;;3.40;2.60;;;;;;;17.10;61.43;100587.06;4420842;32;33027;-86
2021/09/03 01:13:28;;;;;;;4.12;3.03;;;;;;;16.78;62.32;100582.72;4421979;32;33871;-87
2021/09/03 01:15:56;;;;;;;3.22;2.92;;;;;;;16.59;62.83;100589.06;4421086;32;32971;-87
2021/09/03 01:18:24;;;;;;;9.70;3.47;;;;;;;17.15;61.33;100581.47;4420638;32;33656;-87
2021/09/03 01:20:52;;;;;;;5.32;2.60;;;;;;;16.89;61.73;100578.47;4421743;32;33444;-87
2021/09/03 01:23:20;;;;;;;3.22;2.42;;;;;;;16.43;63.23;100574.88;4425425;32;34232;-87
2021/09/03 01:25:47;;;;;;;3.85;2.35;;;;;;;16.52;62.78;100570.81;4407150;32;34450;-89
2021/09/03 01:28:15;;;;;;;4.18;3.25;;;;;;;16.72;62.17;100573.25;4409935;32;33321;-88
2021/09/03 01:30:43;;;;;;;8.20;3.78;;;;;;;17.06;61.18;100571.31;4421357;32;33617;-87
2021/09/03 01:33:10;;;;;;;3.20;2.65;;;;;;;16.80;61.84;100571.00;4409287;32;33365;-87
2021/09/03 01:35:38;;;;;;;4.62;2.92;;;;;;;16.64;62.54;100571.00;4421690;32;34842;-87
2021/09/03 01:38:06;;;;;;;5.07;2.58;;;;;;;16.53;62.82;100575.22;4421819;32;34155;-87
2021/09/03 01:40:34;;;;;;;3.08;2.60;;;;;;;16.53;62.61;100578.75;4432172;32;32789;-87
2021/09/03 01:43:02;;;;;;;4.87;3.15;;;;;;;16.60;62.52;100569.44;4413760;32;33269;-87
2021/09/03 01:45:30;;;;;;;4.30;3.03;;;;;;;16.64;62.76;100567.47;4407856;32;34175;-87
2021/09/03 01:47:58;;;;;;;3.47;2.58;;;;;;;16.49;63.26;100565.66;4405493;32;33090;-87
2021/09/03 01:50:25;;;;;;;4.00;3.33;;;;;;;16.44;63.31;100570.41;4405200;32;32703;-87
2021/09/03 01:52:53;;;;;;;3.25;2.58;;;;;;;16.55;63.21;100574.16;4421718;32;34213;-87
2021/09/03 01:55:23;;;;;;;6.15;3.30;;;;;;;16.76;62.55;100568.59;4433366;32;33700;-87
2021/09/03 01:57:51;;;;;;;3.12;2.58;;;;;;;16.94;61.94;100572.87;4422930;32;34871;-87
2021/09/03 02:00:19;;;;;;;6.25;3.17;;;;;;;16.64;63.09;100562.97;4405966;32;33042;-88
2021/09/03 02:02:46;;;;;;;9.25;3.25;;;;;;;16.83;62.71;100561.97;4425935;32;33514;-87
2021/09/03 02:05:14;;;;;;;4.20;3.12;;;;;;;16.97;62.46;100559.37;4424710;32;33637;-87
2021/09/03 02:07:42;;;;;;;4.03;2.83;;;;;;;16.47;63.76;100563.06;4404603;32;32979;-87
2021/09/03 02:10:10;;;;;;;3.92;2.78;;;;;;;16.64;63.62;100559.47;4416290;32;33407;-87
2021/09/03 02:12:38;;;;;;;4.30;3.00;;;;;;;16.93;62.18;100556.97;4419574;32;34535;-87
2021/09/03 02:15:08;;;;;;;5.68;2.92;;;;;;;16.99;62.15;100552.13;4402562;32;34693;-87
2021/09/03 02:17:36;;;;;;;4.82;3.45;;;;;;;16.92;62.93;100564.12;4405079;32;33856;-87
2021/09/03 02:20:05;;;;;;;5.18;2.92;;;;;;;16.67;62.62;100561.09;4413552;32;32584;-89
2021/09/03 02:22:33;;;;;;;8.52;3.03;;;;;;;16.75;61.86;100564.22;4423116;32;33411;-89
2021/09/03 02:25:01;;;;;;;7.12;3.25;;;;;;;16.77;62.04;100555.19;4409281;32;33116;-89
2021/09/03 02:27:30;;;;;;;5.05;2.72;;;;;;;17.03;60.68;100558.16;4405145;32;33290;-89
2021/09/03 02:29:57;;;;;;;4.25;2.97;;;;;;;17.03;61.20;100556.34;4403186;32;33920;-88
2021/09/03 02:32:26;;;;;;;3.78;2.70;;;;;;;17.10;60.44;100557.72;4417590;32;33034;-86
2021/09/03 02:35:23;;;;;;;4.80;2.85;;;;;;;17.21;59.87;100543.72;4405992;32;33360;-86
2021/09/03 02:37:51;;;;;;;3.75;2.53;;;;;;;17.45;58.52;100546.72;4422998;32;34227;-86
2021/09/03 02:40:19;;;;;;;3.00;2.30;;;;;;;17.46;57.97;100540.44;4418485;32;33609;-87
2021/09/03 02:42:46;;;;;;;4.22;2.90;;;;;;;17.55;57.47;100542.53;4404410;32;33171;-87
2021/09/03 02:45:14;;;;;;;6.20;4.25;;;;;;;17.59;57.14;100537.88;4420558;32;33917;-88
2021/09/03 02:47:42;;;;;;;3.75;2.83;;;;;;;17.76;56.61;100532.41;4427520;32;34012;-88
2021/09/03 02:50:10;;;;;;;3.72;2.70;;;;;;;17.81;56.74;100534.81;4411513;32;32114;-88
2021/09/03 02:52:37;;;;;;;5.07;3.00;;;;;;;17.85;56.91;100534.53;4424720;32;33412;-88
2021/09/03 02:55:06;;;;;;;3.85;3.12;;;;;;;18.12;55.83;100531.03;4423958;32;34225;-88
2021/09/03 02:57:34;;;;;;;5.78;3.05;;;;;;;18.16;55.48;100529.91;4415846;32;33804;-88
2021/09/03 03:00:06;;;;;;;4.22;3.10;;;;;;;18.02;55.82;100529.91;4419317;32;32954;-88
2021/09/03 03:02:35;;;;;;;5.78;3.37;;;;;;;18.19;55.29;100532.37;4405580;32;33126;-88
2021/09/03 03:05:04;;;;;;;3.60;2.60;;;;;;;18.14;55.43;100535.34;4402410;32;33696;-89
2021/09/03 03:07:32;;;;;;;6.28;2.80;;;;;;;18.17;55.53;100531.59;4434733;32;33265;-89
2021/09/03 03:10:00;;;;;;;5.35;2.47;;;;;;;18.32;54.84;100525.28;4416820;32;32360;-88
2021/09/03 03:12:28;;;;;;;4.32;2.70;;;;;;;18.42;54.77;100534.44;4408709;32;32887;-89
2021/09/03 03:14:55;;;;;;;3.65;2.40;;;;;;;18.43;54.60;100536.16;4410835;32;33513;-89
2021/09/03 03:17:24;;;;;;;4.35;2.53;;;;;;;18.51;54.14;100527.63;4424710;32;32758;-89
2021/09/03 03:19:51;;;;;;;4.22;3.25;;;;;;;18.47;54.18;100525.25;4407765;32;32545;-89
2021/09/03 03:22:19;;;;;;;4.18;2.65;;;;;;;18.39;54.27;100533.78;4399413;32;33247;-88
2021/09/03 03:24:46;;;;;;;4.40;2.78;;;;;;;18.43;54.33;100536.16;4406570;32;34477;-89
2021/09/03 03:27:14;;;;;;;3.42;2.78;;;;;;;18.40;54.58;100538.16;4406031;32;33177;-89
2021/09/03 03:29:45;;;;;;;3.80;2.58;;;;;;;18.43;54.29;100535.31;4411046;32;32820;-89
2021/09/03 03:32:15;;;;;;;3.25;2.65;;;;;;;18.48;54.11;100525.16;4414835;32;33174;-88
2021/09/03 03:34:44;;;;;;;5.00;2.83;;;;;;;18.58;53.45;100531.63;4407898;32;34716;-89
2021/09/03 03:37:12;;;;;;;3.95;2.92;;;;;;;18.55;53.72;100529.13;4422560;32;32967;-89
2021/09/03 03:39:41;;;;;;;4.72;2.72;;;;;;;18.59;53.48;100536.00;4404046;32;32839;-89
2021/09/03 03:42:08;;;;;;;3.45;2.12;;;;;;;18.68;53.28;100535.44;4403213;32;33270;-88
2021/09/03 03:44:36;;;;;;;4.47;3.00;;;;;;;18.64;53.42;100533.88;4401254;32;34722;-89
2021/09/03 03:47:04;;;;;;;6.45;2.78;;;;;;;18.73;53.23;100531.59;4409607;32;33243;-89
2021/09/03 03:49:55;;;;;;;4.07;2.83;;;;;;;18.76;53.02;100528.75;4409877;32;33600;-88
2021/09/03 03:52:23;;;;;;;4.60;3.20;;;;;;;18.76;52.98;100528.75;4412108;32;34653;-88
2021/09/03 03:54:51;;;;;;;4.95;2.85;;;;;;;18.74;53.29;100527.97;4410222;32;33179;-89
2021/09/03 03:57:19;;;;;;;2.28;2.03;;;;;;;18.77;52.79;100530.44;4400986;32;33028;-87
2021/09/03 03:59:47;;;;;;;4.43;3.22;;;;;;;18.68;52.88;100523.84;4415279;32;33244;-86
2021/09/03 04:02:14;;;;;;;8.85;2.95;;;;;;;18.55;53.07;100526.47;4412276;32;32810;-87
2021/09/03 04:04:42;;;;;;;3.72;2.90;;;;;;;18.59;53.38;100530.66;4406196;32;33107;-87
2021/09/03 04:07:10;;;;;;;4.78;3.33;;;;;;;18.67;53.26;100528.34;4402126;32;33037;-88
2021/09/03 04:09:37;;;;;;;3.58;2.90;;;;;;;18.64;53.42;100517.84;4421857;32;33239;-88
2021/09/03 04:12:08;;;;;;;4.22;2.50;;;;;;;18.60;53.55;100524.34;4403127;32;33150;-89
2021/09/03 04:14:36;;;;;;;5.00;2.60;;;;;;;18.73;53.17;100515.56;4410601;32;33118;-88
2021/09/03 04:17:04;;;;;;;4.45;3.42;;;;;;;18.75;53.16;100518.97;4416020;32;33852;-88
2021/09/03 04:19:32;;;;;;;4.93;2.95;;;;;;;18.87;52.42;100519.03;4419795;32;33762;-88
2021/09/03 04:21:59;;;;;;;4.85;2.67;;;;;;;18.78;52.83;100516.09;4409251;32;34250;-88
2021/09/03 04:24:27;;;;;;;8.05;3.67;;;;;;;18.70;52.89;100518.44;4402563;32;34511;-89
2021/09/03 04:26:56;;;;;;;5.47;2.92;;;;;;;18.64;52.91;100515.16;4414505;32;33903;-89
2021/09/03 04:29:35;;;;;;;6.97;3.20;;;;;;;18.63;52.88;100518.81;4405301;32;32574;-89
2021/09/03 04:32:04;;;;;;;4.62;3.12;;;;;;;18.58;52.94;100518.25;4421750;32;33379;-88
2021/09/03 04:34:31;;;;;;;4.00;2.70;;;;;;;18.67;52.96;100522.16;4413496;32;32963;-88
2021/09/03 04:36:59;;;;;;;4.87;2.53;;;;;;;18.72;52.85;100516.53;4405784;32;33147;-88
2021/09/03 04:39:26;;;;;;;8.10;2.67;;;;;;;18.55;53.47;100513.09;4406856;32;33460;-89
2021/09/03 04:41:54;;;;;;;3.72;2.80;;;;;;;18.43;53.85;100521.94;4422786;32;34468;-89
2021/09/03 04:44:22;;;;;;;5.97;3.25;;;;;;;18.39;53.69;100517.75;4424805;32;34007;-89
2021/09/03 04:46:49;;;;;;;5.55;2.90;;;;;;;18.58;53.43;100517.41;4411674;32;34019;-88
2021/09/03 04:49:18;;;;;;;5.78;2.97;;;;;;;18.63;53.34;100518.81;4410292;32;32795;-85
2021/09/03 04:51:46;;;;;;;6.95;3.83;;;;;;;18.72;53.18;100528.09;4430626;32;32878;-89
2021/09/03 04:54:14;;;;;;;3.50;2.75;;;;;;;18.78;53.01;100521.47;4427194;32;33925;-89
2021/09/03 04:56:42;;;;;;;4.28;2.95;;;;;;;18.68;52.94;100527.41;4413042;32;33342;-89
2021/09/03 04:59:10;;;;;;;4.93;3.58;;;;;;;18.60;53.21;100516.31;4408404;32;32409;-89
2021/09/03 05:01:38;;;;;;;3.25;2.80;;;;;;;18.66;53.30;100515.94;4412864;32;32786;-89
2021/09/03 05:04:06;;;;;;;5.78;2.67;;;;;;;18.64;53.28;100515.16;4414243;32;32980;-89
2021/09/03 05:06:34;;;;;;;3.85;2.92;;;;;;;18.63;53.50;100505.44;4400749;32;33332;-89
2021/09/03 05:09:03;;;;;;;3.33;3.03;;;;;;;19.02;52.70;100508.25;4416817;32;32838;-89
2021/09/03 05:11:30;;;;;;;6.75;3.60;;;;;;;18.90;52.88;100513.47;4398086;32;34011;-89
2021/09/03 05:13:58;;;;;;;3.47;2.78;;;;;;;18.85;53.06;100515.63;4400436;32;33131;-88
2021/09/03 05:16:26;;;;;;;3.72;3.15;;;;;;;18.96;52.69;100512.22;4403028;32;32892;-87
2021/09/03 05:18:54;;;;;;;3.72;2.85;;;;;;;18.72;54.08;100512.03;4402517;32;32830;-88
2021/09/03 05:21:46;;;;;;;5.10;3.65;;;;;;;18.77;54.61;100509.06;4398107;32;34176;-88
2021/09/03 05:24:14;;;;;;;5.55;3.45;;;;;;;18.97;52.78;100508.56;4404715;32;34152;-88
2021/09/03 05:26:42;;;;;;;4.95;3.10;;;;;;;18.57;55.39;100513.00;4413850;32;33094;-88
2021/09/03 05:29:09;;;;;;;6.12;3.53;;;;;;;18.83;54.57;100508.63;4422253;32;32413;-88
2021/09/03 05:31:37;;;;;;;7.72;3.05;;;;;;;18.88;53.47;100515.37;4405768;32;33299;-88
2021/09/03 05:34:07;;;;;;;9.38;4.05;;;;;;;19.04;53.59;100503.69;4418806;32;34777;-88
2021/09/03 05:36:35;;;;;;;8.18;3.37;;;;;;;18.73;54.38;100512.88;4405142;32;33126;-88
2021/09/03 05:39:03;;;;;;;6.47;3.92;;;;;;;18.94;53.66;100514.13;4417882;32;33147;-87
2021/09/03 05:41:30;;;;;;;5.87;3.85;;;;;;;19.07;53.54;100512.34;4434941;32;33477;-88
2021/09/03 05:43:58;;;;;;;7.57;3.53;;;;;;;18.96;53.89;100506.84;4411373;32;33547;-88
2021/09/03 05:46:26;;;;;;;6.22;3.78;;;;;;;19.18;53.57;100504.44;4408893;32;33060;-88
2021/09/03 05:48:54;;;;;;;7.53;3.62;;;;;;;19.26;52.93;100495.88;4410130;32;32568;-88
2021/09/03 05:51:21;;;;;;;8.10;3.90;;;;;;;19.44;52.30;100502.63;4411315;32;32897;-87
2021/09/03 05:53:49;;;;;;;6.45;4.30;;;;;;;19.72;50.50;100505.25;4412944;32;33094;-88
2021/09/03 05:56:16;;;;;;;4.87;3.20;;;;;;;19.73;51.05;100499.78;4417723;32;33583;-83
2021/09/03 05:58:44;;;;;;;6.95;3.90;;;;;;;19.34;53.08;100508.75;4423113;32;33043;-83
2021/09/03 06:01:12;;;;;;;4.40;3.65;;;;;;;19.49;52.36;100499.62;4412418;32;34346;-84
2021/09/03 06:03:40;;;;;;;5.37;3.37;;;;;;;19.64;52.60;100498.59;4436550;32;34017;-84
2021/09/03 06:06:07;;;;;;;5.97;3.97;;;;;;;19.93;51.84;100498.34;4424012;32;33574;-84
2021/09/03 06:08:35;;;;;;;4.82;3.70;;;;;;;19.88;51.70;100501.34;4423011;32;33200;-84
2021/09/03 06:11:02;;;;;;;8.77;4.40;;;;;;;20.13;50.19;100495.13;4420463;32;34715;-84
2021/09/03 06:13:34;;;;;;;8.25;3.65;;;;;;;19.71;51.37;100487.47;4419100;32;34511;-84
2021/09/03 06:16:02;;;;;;;5.72;3.95;;;;;;;19.99;50.98;100489.88;4421427;32;34726;-84
2021/09/03 06:18:30;;;;;;;5.30;3.97;;;;;;;19.96;50.49;100492.78;4414907;32;32844;-84
2021/09/03 06:20:57;;;;;;;7.32;3.53;;;;;;;19.96;51.33;100492.78;4418534;32;33123;-84
2021/09/03 06:23:25;;;;;;;6.30;4.53;;;;;;;20.03;51.25;100488.69;4425468;32;33434;-84
2021/09/03 06:25:53;;;;;;;12.07;4.40;;;;;;;19.96;50.19;100492.78;4410588;32;33332;-84
2021/09/03 06:28:20;;;;;;;7.43;3.80;;;;;;;20.28;49.38;100492.28;4415592;32;32461;-84
2021/09/03 06:30:48;;;;;;;7.00;4.37;;;;;;;20.20;49.99;100490.16;4415946;32;34919;-84
2021/09/03 06:33:16;;;;;;;8.43;4.90;;;;;;;20.12;51.00;100489.84;4419057;32;33266;-84
2021/09/03 06:35:43;;;;;;;12.88;4.68;;;;;;;20.27;50.63;100490.53;4403888;32;34210;-84
2021/09/03 06:38:11;;;;;;;5.30;4.22;;;;;;;19.84;51.77;100493.63;4410389;32;32062;-84
2021/09/03 06:40:39;;;;;;;8.60;4.35;;;;;;;19.88;51.06;100489.78;4397769;32;33351;-85
2021/09/03 06:43:06;;;;;;;7.40;4.20;;;;;;;20.41;50.03;100493.06;4422936;32;34023;-85
2021/09/03 06:45:34;;;;;;;7.55;4.47;;;;;;;20.52;49.83;100489.66;4421125;32;34198;-85
2021/09/03 06:48:02;;;;;;;8.60;4.60;;;;;;;20.55;49.32;100484.87;4425478;32;34436;-84
2021/09/03 06:50:30;;;;;;;5.97;3.83;;;;;;;20.48;49.53;100483.66;4424317;32;34186;-85
2021/09/03 06:52:57;;;;;;;5.30;4.37;;;;;;;20.62;49.71;100488.00;4421115;32;34852;-84
2021/09/03 06:55:25;;;;;;;10.00;4.90;;;;;;;20.92;49.34;100492.88;4432624;32;32549;-84
2021/09/03 06:57:52;;;;;;;7.05;4.43;;;;;;;20.51;50.12;100483.44;4435233;32;33404;-84
2021/09/03 07:00:20;;;;;;;8.48;4.50;;;;;;;20.82;49.56;100489.19;4414751;32;33919;-84
2021/09/03 07:02:48;;;;;;;5.40;3.83;;;;;;;20.66;49.68;100498.37;4407987;32;33327;-84
2021/09/03 07:05:16;;;;;;;7.15;4.85;;;;;;;21.04;49.80;100493.78;4413309;32;33839;-84
2021/09/03 07:07:45;;;;;;;5.10;4.25;;;;;;;21.37;48.79;100498.41;4434731;32;33481;-84
2021/09/03 07:10:13;;;;;;;8.80;4.30;;;;;;;21.40;48.05;100498.16;4417233;32;33145;-84
2021/09/03 07:12:41;;;;;;;9.18;4.28;;;;;;;21.20;48.47;100492.47;4411236;32;34270;-84
2021/09/03 07:15:10;;;;;;;7.00;4.40;;;;;;;21.02;47.79;100509.97;4430159;32;33221;-84
2021/09/03 07:17:37;;;;;;;6.62;4.62;;;;;;;20.86;48.28;100504.06;4411620;32;33071;-84
2021/09/03 07:20:06;;;;;;;5.28;4.03;;;;;;;20.93;48.02;100494.56;4423114;32;33652;-84
2021/09/03 07:22:33;;;;;;;5.82;3.75;;;;;;;21.11;47.66;100503.06;4418327;32;33892;-84
2021/09/03 07:25:01;;;;;;;9.70;4.70;;;;;;;21.14;48.31;100492.94;4405735;32;34831;-83
2021/09/03 07:27:29;;;;;;;9.85;3.87;;;;;;;21.46;48.28;100487.81;4415463;32;33571;-84
2021/09/03 07:29:57;;;;;;;6.80;4.50;;;;;;;21.30;47.71;100494.44;4406045;32;34090;-85
2021/09/03 07:32:25;;;;;;;10.38;4.55;;;;;;;21.45;48.31;100490.59;4402982;32;33100;-84
2021/09/03 07:34:52;;;;;;;7.90;4.30;;;;;;;21.90;46.64;100485.25;4418459;32;34182;-84
2021/09/03 07:37:20;;;;;;;5.28;4.12;;;;;;;21.65;47.80;100489.91;4428102;32;33219;-84
2021/09/03 07:39:49;;;;;;;9.27;4.28;;;;;;;21.73;48.08;100489.28;4412178;32;34471;-84
2021/09/03 07:42:16;;;;;;;4.47;3.40;;;;;;;22.01;47.47;100484.41;4426683;32;34706;-84
2021/09/03 07:44:45;;;;;;;7.95;4.35;;;;;;;21.84;47.35;100485.72;4420233;32;33942;-85
2021/09/03 07:47:13;;;;;;;7.85;4.60;;;;;;;22.04;45.62;100484.16;4436261;32;34161;-84
2021/09/03 07:49:41;;;;;;;8.45;4.20;;;;;;;22.03;46.66;100486.00;4416400;32;33768;-87
2021/09/03 07:52:09;;;;;;;7.65;4.45;;;;;;;22.51;45.57;100485.69;4422240;32;33898;-85
2021/09/03 07:54:36;;;;;;;6.72;4.22;;;;;;;22.48;46.01;100480.53;4422558;32;33668;-85
2021/09/03 07:57:04;;;;;;;7.60;4.93;;;;;;;22.19;45.67;100477.56;4409588;32;32335;-85
2021/09/03 07:59:32;;;;;;;7.55;3.70;;;;;;;22.57;45.32;100477.09;4434839;32;34524;-85
2021/09/03 08:01:59;;;;;;;7.40;3.92;;;;;;;22.26;45.77;100477.91;4409714;32;34080;-85
2021/09/03 08:04:29;;;;;;;7.87;4.85;;;;;;;22.54;46.45;100479.19;4422278;32;33952;-85
2021/09/03 08:06:57;;;;;;;7.03;4.30;;;;;;;22.71;44.81;100471.41;4406415;32;32452;-83
2021/09/03 08:09:25;;;;;;;5.30;4.03;;;;;;;22.72;45.03;100478.50;4415372;32;32831;-83
2021/09/03 08:11:53;;;;;;;7.20;4.75;;;;;;;22.33;45.97;100481.81;4437484;32;33104;-84
2021/09/03 08:14:20;;;;;;;7.30;4.72;;;;;;;22.65;44.77;100476.47;4423922;32;32809;-85
2021/09/03 08:16:48;;;;;;;5.75;4.32;;;;;;;22.36;45.30;100477.03;4418956;32;33448;-84
2021/09/03 08:19:16;;;;;;;7.28;4.30;;;;;;;22.67;46.18;100474.50;4421599;32;32962;-84
2021/09/03 08:21:43;;;;;;;5.82;4.62;;;;;;;23.05;44.30;100468.59;4421498;32;32803;-84
2021/09/03 08:24:14;;;;;;;12.95;4.53;;;;;;;22.75;44.77;100463.94;4416415;32;34016;-85
2021/09/03 08:26:43;;;;;;;6.22;4.40;;;;;;;22.92;45.35;100467.91;4417158;32;33283;-84
2021/09/03 08:29:10;;;;;;;6.60;4.62;;;;;;;23.12;44.69;100463.53;4424497;32;33179;-84
2021/09/03 08:31:38;;;;;;;5.70;3.70;;;;;;;23.21;45.65;100460.87;4409832;32;33475;-85
2021/09/03 08:34:06;;;;;;;6.30;3.95;;;;;;;23.74;43.58;100463.50;4432372;32;34358;-84
2021/09/03 08:36:33;;;;;;;9.48;4.00;;;;;;;23.56;45.62;100464.22;4411972;32;33363;-84
2021/09/03 08:39:01;;;;;;;9.05;4.78;;;;;;;22.94;43.96;100465.97;4411321;32;34495;-83
2021/09/03 08:41:29;;;;;;;6.62;3.97;;;;;;;22.94;43.20;100464.13;4423465;32;34039;-83
2021/09/03 08:43:59;;;;;;;6.00;4.15;;;;;;;22.82;45.52;100472.34;4411877;32;35665;-84
2021/09/03 08:46:27;;;;;;;5.60;4.28;;;;;;;23.16;43.78;100462.28;4418275;32;33490;-83
2021/09/03 08:48:55;;;;;;;5.37;4.10;;;;;;;23.54;43.39;100458.94;4415242;32;33631;-84
2021/09/03 08:51:23;;;;;;;6.60;3.60;;;;;;;23.67;43.37;100459.62;4417379;32;32960;-83
2021/09/03 08:53:51;;;;;;;6.05;3.80;;;;;;;24.18;42.94;100449.72;4433628;32;34426;-84
2021/09/03 08:56:20;;;;;;;7.35;3.83;;;;;;;24.34;42.50;100451.88;4420371;32;33145;-84
2021/09/03 08:58:49;;;;;;;4.37;3.40;;;;;;;24.37;40.86;100448.94;4418459;32;33932;-84
2021/09/03 09:01:18;;;;;;;6.05;3.53;;;;;;;24.46;40.54;100453.50;4420520;32;34486;-84
2021/09/03 09:03:50;;;;;;;9.63;4.10;;;;;;;24.49;40.65;100447.81;4422736;32;34587;-84
2021/09/03 09:06:26;;;;;;;8.23;3.28;;;;;;;24.78;40.95;100440.59;4431862;32;33364;-84
2021/09/03 09:09:06;;;;;;;8.52;3.37;;;;;;;24.80;39.87;100436.87;4421296;32;33651;-84
2021/09/03 09:11:36;;;;;;;3.25;2.95;;;;;;;24.75;39.94;100430.06;4422204;32;33151;-84
2021/09/03 09:14:12;;;;;;;3.78;3.37;;;;;;;25.12;38.34;100428.50;4419612;32;35144;-82
2021/09/03 09:16:40;;;;;;;4.50;2.78;;;;;;;25.05;38.54;100430.88;4422119;32;32493;-83
2021/09/03 09:19:08;;;;;;;4.12;3.42;;;;;;;24.99;41.11;100428.75;4405443;32;33576;-82
2021/09/03 09:21:37;;;;;;;7.65;3.25;;;;;;;25.04;39.12;100437.28;4419565;32;33384;-82
2021/09/03 09:24:09;;;;;;;4.62;2.70;;;;;;;25.36;37.04;100428.84;4418315;32;33931;-82
2021/09/03 09:26:43;;;;;;;;;;;;;;;25.35;38.71;100418.16;4420578;32;33391;-83
2021/09/03 09:29:15;;;;;;;4.68;2.78;;;;;;;25.41;36.38;100418.44;4431853;32;33833;-83
2021/09/03 09:31:45;;;;;;;2.95;2.58;;;;;;;25.55;36.53;100417.13;4420978;32;33668;-83
2021/09/03 09:34:15;;;;;;;6.07;2.33;;;;;;;25.75;36.82;100423.28;4430352;32;33522;-83
2021/09/03 09:36:44;;;;;;;4.80;2.42;;;;;;;25.98;35.19;100418.34;4415565;32;34241;-83
2021/09/03 09:39:12;;;;;;;3.45;2.47;;;;;;;26.24;38.41;100419.31;4417749;32;34380;-83
2021/09/03 09:41:47;;;;;;;3.35;2.45;;;;;;;25.91;35.17;100417.25;4433731;32;33625;-84
2021/09/03 09:44:27;;;;;;;2.60;2.20;;;;;;;26.15;33.54;100414.81;4427344;32;33498;-84
2021/09/03 09:47:03;;;;;;;5.35;2.42;;;;;;;25.77;33.54;100413.19;4406681;32;33890;-84
2021/09/03 09:49:31;;;;;;;2.37;1.92;;;;;;;26.20;34.85;100407.09;4418898;32;33435;-83
2021/09/03 09:51:59;;;;;;;2.33;1.98;;;;;;;26.46;31.63;100403.66;4432159;32;33757;-83
2021/09/03 09:54:26;;;;;;;3.92;2.08;;;;;;;26.05;33.46;100403.22;4418552;32;34524;-83
2021/09/03 09:56:57;;;;;;;2.90;2.20;;;;;;;26.37;34.92;100402.69;4418791;32;33847;-83
2021/09/03 09:59:26;;;;;;;2.97;2.12;;;;;;;26.30;31.44;100399.78;4413649;32;33378;-84
2021/09/03 10:01:56;;;;;;;3.97;2.05;;;;;;;26.27;33.54;100397.38;4420778;32;35587;-83
2021/09/03 10:04:27;;;;;;;4.25;2.17;;;;;;;26.84;32.24;100394.34;4430976;32;32405;-83
2021/09/03 10:06:57;;;;;;;3.60;2.12;;;;;;;27.01;32.03;100389.87;4415386;32;33561;-83
2021/09/03 10:09:27;;;;;;;3.33;2.12;;;;;;;26.79;31.79;100388.56;4419440;32;32738;-83
2021/09/03 10:11:56;;;;;;;3.42;2.53;;;;;;;27.58;31.22;100384.81;4417651;32;34599;-83
2021/09/03 10:14:27;;;;;;;3.37;2.62;;;;;;;27.62;32.41;100374.50;4418179;32;33987;-83
2021/09/03 10:16:56;;;;;;;3.97;2.15;;;;;;;27.92;30.80;100373.13;4420679;32;33030;-83
2021/09/03 10:19:26;;;;;;;3.72;2.30;;;;;;;27.43;31.81;100368.31;4416995;32;33178;-84
2021/09/03 10:22:12;;;;;;;2.92;2.12;;;;;;;27.43;32.03;100367.47;4425964;32;34000;-83
2021/09/03 10:24:45;;;;;;;2.53;1.98;;;;;;;27.41;31.55;100374.94;4403952;32;33889;-83
2021/09/03 10:27:14;;;;;;;7.35;1.70;;;;;;;27.83;29.60;100372.25;4422431;32;33464;-83
2021/09/03 10:29:43;;;;;;;6.72;2.22;;;;;;;27.92;28.85;100365.00;4433830;32;34120;-84
2021/09/03 10:32:15;;;;;;;3.83;2.45;;;;;;;27.37;30.15;100368.12;4407224;32;33439;-83
2021/09/03 10:34:54;;;;;;;2.03;1.83;;;;;;;27.27;30.68;100368.25;4418946;32;33549;-83
2021/09/03 10:37:23;;;;;;;3.10;2.10;;;;;;;27.63;29.45;100359.91;4418108;32;33914;-83
2021/09/03 10:40:04;;;;;;;4.25;2.17;;;;;;;27.51;29.34;100352.09;4428012;32;33919;-83
2021/09/03 10:42:39;;;;;;;2.75;2.00;;;;;;;27.40;32.49;100365.09;4433751;32;33981;-84
2021/09/03 10:45:27;;;;;;;3.95;2.33;;;;;;;27.05;31.65;100364.16;4428579;32;33893;-83
2021/09/03 10:48:12;;;;;;;3.33;2.00;;;;;;;27.07;30.16;100356.75;4409027;32;32805;-84
2021/09/03 10:50:47;;;;;;;5.50;2.30;;;;;;;26.35;31.02;100360.53;4415563;32;33247;-84
2021/09/03 10:53:22;;;;;;;3.20;1.80;;;;;;;26.63;31.83;100364.03;4421430;32;33078;-83
2021/09/03 10:56:30;;;;;;;3.03;2.15;;;;;;;26.40;33.43;100358.25;4430668;32;33347;-83
2021/09/03 10:59:04;;;;;;;6.62;2.40;;;;;;;25.67;33.94;100360.97;4421226;32;32824;-83
2021/09/03 11:01:36;;;;;;;4.45;2.28;;;;;;;25.53;33.46;100359.59;4415312;32;33685;-83
2021/09/03 11:04:15;;;;;;;4.18;1.98;;;;;;;25.94;33.67;100357.44;4410399;32;33851;-83
2021/09/03 11:06:56;;;;;;;4.07;2.67;;;;;;;25.90;33.53;100350.62;4402949;32;34378;-83
2021/09/03 11:09:25;;;;;;;4.22;2.22;;;;;;;26.19;34.01;100356.66;4414733;32;33950;-83
2021/09/03 11:11:55;;;;;;;3.60;2.55;;;;;;;25.37;35.34;100360.25;4416798;32;34880;-84
2021/09/03 11:14:26;;;;;;;3.72;2.70;;;;;;;25.17;34.69;100359.50;4417108;32;33981;-82
2021/09/03 11:17:00;;;;;;;5.70;2.70;;;;;;;25.47;35.57;100350.25;4430893;32;34317;-83
2021/09/03 11:19:33;;;;;;;5.70;2.90;;;;;;;25.69;34.41;100354.41;4419525;32;34275;-82
2021/09/03 11:22:04;;;;;;;3.33;3.00;;;;;;;25.45;34.98;100349.56;4428768;32;34044;-82
2021/09/03 11:25:03;;;;;;;7.40;3.75;;;;;;;25.43;34.94;100348.00;4430980;32;34495;-83
2021/09/03 11:27:31;;;;;;;5.32;3.20;;;;;;;25.53;34.91;100348.78;4418235;32;33912;-83
2021/09/03 11:30:01;;;;;;;6.75;3.15;;;;;;;26.49;33.43;100336.53;4427601;32;32386;-82
2021/09/03 11:32:32;;;;;;;5.65;3.10;;;;;;;26.17;33.69;100341.59;4425940;32;34519;-83
2021/09/03 11:35:11;;;;;;;3.53;2.97;;;;;;;26.11;35.68;100334.97;4434641;32;34098;-83